Flight Track Log - Related Links

Times and Time Zones

All times are in EDT time to prevent confusion due to time zone crossing. See the CES2540 flight status page for this flight to view local times or setup timezone preferences in your user account.

Time Position Orientation Groundspeed Altitude Reporting Facility
EDT Latitude Longitude Course Direction KTS MPH feet Rate Location/Type
01:48AM 31.1374 119.6920 268° West  Level Estimated
01:49AM 31.1332 119.5954 267° West  Level Estimated
01:50AM 31.1289 119.4987 267° West  Level Estimated
01:51AM 31.1246 119.4021 267° West  Level Estimated
01:52AM 31.1201 119.3054 267° West  Level Estimated
01:53AM 31.1157 119.2088 267° West  Level Estimated
01:54AM 31.1111 119.1122 267° West  Level Estimated
01:55AM 31.1064 119.0156 267° West  Level Estimated
01:56AM 31.1017 118.9190 267° West  Level Estimated
01:57AM 31.0970 118.8224 267° West  Level Estimated
01:58AM 31.0921 118.7259 267° West  Level Estimated
01:59AM 31.0872 118.6293 267° West  Level Estimated
02:00AM 31.0822 118.5328 267° West  Level Estimated
02:01AM 31.0771 118.4362 267° West  Level Estimated
02:02AM 31.0720 118.3397 266° West  Level Estimated
02:03AM 31.0667 118.2431 266° West  Level Estimated
02:04AM 31.0614 118.1466 266° West  Level Estimated
02:05AM 31.0561 118.0501 266° West  Level Estimated
02:06AM 31.0507 117.9537 266° West  Level Estimated
02:07AM 31.0452 117.8572 266° West  Level Estimated
02:08AM 31.0396 117.7607 266° West  Level Estimated
02:09AM 31.0339 117.6643 266° West  Level Estimated
02:10AM 31.0282 117.5678 266° West  Level Estimated
02:11AM 31.0224 117.4714 266° West  Level Estimated
02:12AM 31.0166 117.3750 266° West  Level Estimated
02:13AM 31.0106 117.2785 266° West  Level Estimated
02:14AM 31.0046 117.1822 266° West  Level Estimated
02:15AM 30.9986 117.0858 266° West  Level Estimated
02:16AM 30.9924 116.9894 266° West  Level Estimated
02:17AM 30.9862 116.8930 266° West  Level Estimated
02:18AM 30.9799 116.7967 266° West  Level Estimated
02:19AM 30.9735 116.7004 266° West  Level Estimated
02:20AM 30.9671 116.6040 266° West  Level Estimated
02:21AM 30.9606 116.5077 266° West  Level Estimated
02:22AM 30.9540 116.4114 265° West  Level Estimated
02:23AM 30.9474 116.3152 265° West  Level Estimated
02:24AM 30.9407 116.2189 265° West  Level Estimated
02:25AM 30.9339 116.1226 265° West  Level Estimated
02:26AM 30.9270 116.0264 265° West  Level Estimated
02:27AM 30.9201 115.9302 265° West  Level Estimated
02:28AM 30.9131 115.8340 265° West  Level Estimated
02:29AM 30.9060 115.7378 265° West  Level Estimated
02:30AM 30.8988 115.6416 265° West  Level Estimated
02:31AM 30.8916 115.5454 265° West  Level Estimated
02:32AM 30.8843 115.4493 265° West  Level Estimated
02:33AM 30.8770 115.3531 265° West  Level Estimated
02:34AM 30.8695 115.2570 265° West  Level Estimated
02:35AM 30.8620 115.1609 265° West  Level Estimated
02:36AM 30.8545 115.0648 265° West  Level Estimated
02:37AM 30.8468 114.9687 265° West  Level Estimated
02:38AM 30.8391 114.8726 265° West  Level Estimated
02:39AM 30.8313 114.7766 265° West  Level Estimated
02:40AM 30.8235 114.6806 265° West  Level Estimated
02:41AM 30.8155 114.5845 265° West  Level Estimated
02:42AM 30.8075 114.4885 264° West  Level Estimated
02:43AM 30.7995 114.3926 264° West  Level Estimated
02:44AM 30.7913 114.2966 264° West  Level Estimated
02:45AM 30.7838 114.2081 264° West  Level Estimated
02:46AM 30.7838 114.2081 North  Level Estimated
02:47AM 30.7838 114.2081 North  Level Estimated
02:48AM 30.7838 114.2081 North  Level Estimated
02:49AM 30.7838 114.2081 North  Level Estimated
02:50AM 30.7838 114.2081 North  Level Estimated
02:51AM 30.7838 114.2081 North  Level Estimated
02:52AM 30.7838 114.2081 North  Level Estimated
02:53AM 30.7838 114.2081 North  Level Estimated
02:54AM 30.7838 114.2081 North  Level Estimated
02:55AM 30.7838 114.2081 North  Level Estimated
02:56AM 30.7838 114.2081 North  Level Estimated
02:57AM 30.7838 114.2081 North  Level Estimated
02:58AM 30.7838 114.2081 North  Level Estimated
02:59AM 30.7838 114.2081 North  Level Estimated
03:00AM 30.7838 114.2081 North  Level Estimated
03:01AM 30.7838 114.2081 North  Level Estimated

Login

Don't have an account? Register now (free) for customized features, flight alerts, and more!